Time;durP1;ratioP1;P1;durP2;ratioP2;P2;SDS_P1;SDS_P2;PMS_P1;PMS_P2;Temp;Humidity;BMP_temperature;BMP_pressure;BME280_temperature;BME280_humidity;BME280_pressure;Samples;Min_cycle;Max_cycle;Signal;HPM_P1;HPM_P2
2022/11/25 00:00:09;;;;;;;;;14.75;13.75;;;;;11.39;78.21;100429.16;4899554;29;45585;-55
2022/11/25 00:02:35;;;;;;;;;2.40;2.40;;;;;11.39;78.70;100435.47;4899157;29;45417;-55
2022/11/25 00:05:00;;;;;;;;;6.00;5.25;;;;;11.41;78.35;100438.00;4899248;29;46041;-53
2022/11/25 00:07:26;;;;;;;;;11.00;6.50;;;;;11.37;78.40;100434.03;4899078;29;45826;-52
2022/11/25 00:09:51;;;;;;;;;6.50;3.00;;;;;11.29;78.05;100437.06;4882206;29;45412;-56
2022/11/25 00:12:17;;;;;;;;;9.50;7.25;;;;;11.35;78.03;100425.16;4899359;29;45433;-55
2022/11/25 00:14:42;;;;;;;;;12.00;8.25;;;;;11.36;78.34;100418.59;4898785;29;46620;-54
2022/11/25 00:17:08;;;;;;;;;6.00;5.00;;;;;11.38;78.31;100425.56;4899112;29;45470;-54
2022/11/25 00:19:33;;;;;;;;;8.75;4.50;;;;;11.43;78.16;100435.03;4882137;29;45479;-51
2022/11/25 00:21:59;;;;;;;;;4.25;3.00;;;;;11.43;78.04;100441.38;4899313;29;45561;-52
2022/11/25 00:24:24;;;;;;;;;2.75;2.50;;;;;11.46;78.01;100437.31;4881888;29;45272;-52
2022/11/25 00:26:49;;;;;;;;;3.25;3.25;;;;;11.46;77.74;100445.56;4898675;29;45315;-55
2022/11/25 00:29:16;;;;;;;;;3.75;2.75;;;;;11.45;77.37;100444.75;4860693;28;45494;-54
2022/11/25 00:31:42;;;;;;;;;1.40;1.40;;;;;11.42;78.05;100447.94;4880068;29;45347;-55
2022/11/25 00:34:11;;;;;;;;;1.00;1.00;;;;;11.46;77.98;100442.81;4880030;29;45717;-54
2022/11/25 00:36:36;;;;;;;;;3.80;2.00;;;;;11.47;77.96;100441.78;4893607;29;45323;-51
2022/11/25 00:39:08;;;;;;;;;4.00;4.00;;;;;11.45;77.90;100435.66;4898796;29;45346;-55
2022/11/25 00:44:39;;;;;;;;;6.60;4.60;;;;;11.18;77.74;100406.50;4898553;29;45752;-53
2022/11/25 00:47:11;;;;;;;;;8.60;4.80;;;;;11.37;77.84;100456.03;4898462;29;45244;-51
2022/11/25 00:49:38;;;;;;;;;2.40;2.40;;;;;11.12;78.00;100415.66;4898880;29;45370;-54
2022/11/25 00:52:04;;;;;;;;;3.00;3.00;;;;;11.33;77.98;100454.78;4881342;29;45628;-51
2022/11/25 00:54:29;;;;;;;;;3.00;3.00;;;;;11.24;78.04;100459.69;4898492;29;45444;-53
2022/11/25 00:56:55;;;;;;;;;3.25;3.25;;;;;11.24;78.16;100465.19;4881579;29;45430;-55
2022/11/25 00:59:21;;;;;;;;;6.00;4.00;;;;;11.08;78.27;100436.38;4881705;29;45365;-53
2022/11/25 01:01:46;;;;;;;;;5.00;3.25;;;;;11.22;77.97;100453.59;4898743;29;45395;-53
2022/11/25 01:04:12;;;;;;;;;8.00;4.25;;;;;11.24;78.04;100460.56;4881020;29;45465;-53
2022/11/25 01:06:37;;;;;;;;;7.00;3.50;;;;;11.18;78.01;100469.69;4898643;29;45461;-52
2022/11/25 01:09:04;;;;;;;;;4.00;3.00;;;;;11.16;78.15;100474.53;4898327;29;45649;-53
2022/11/25 01:11:29;;;;;;;;;6.20;4.20;;;;;11.17;78.35;100479.00;4898577;29;45344;-54
2022/11/25 01:13:55;;;;;;;;;4.50;3.00;;;;;11.12;78.69;100470.59;4898655;29;46121;-52
2022/11/25 01:16:21;;;;;;;;;4.75;3.75;;;;;11.13;78.56;100480.50;4898083;29;45756;-54
2022/11/25 01:18:46;;;;;;;;;4.00;3.50;;;;;11.09;78.38;100480.09;4898290;29;45428;-56
2022/11/25 01:21:15;;;;;;;;;4.75;3.75;;;;;10.89;78.83;100458.25;4898206;29;45585;-54
2022/11/25 01:23:41;;;;;;;;;4.20;3.40;;;;;11.09;78.71;100484.75;4865588;29;46469;-55
2022/11/25 01:26:11;;;;;;;;;3.20;3.20;;;;;11.05;78.52;100494.50;4881050;29;45338;-55
2022/11/25 01:28:36;;;;;;;;;7.00;4.40;;;;;10.39;78.36;100387.59;4898229;29;45311;-53
2022/11/25 01:31:06;;;;;;;;;6.50;3.00;;;;;10.93;78.44;100486.09;4898385;29;45591;-55
2022/11/25 01:33:32;;;;;;;;;3.00;3.00;;;;;11.02;78.79;100505.91;4829932;28;45808;-55
2022/11/25 01:36:07;;;;;;;;;4.50;3.25;;;;;11.00;78.54;100505.31;4871552;29;45262;-52
2022/11/25 01:38:33;;;;;;;;;2.00;2.00;;;;;10.98;78.73;100513.75;4897795;29;45344;-54
2022/11/25 01:40:58;;;;;;;;;2.80;2.20;;;;;10.95;78.57;100511.47;4881606;29;45337;-51
2022/11/25 01:43:24;;;;;;;;;2.00;2.00;;;;;10.42;78.47;100442.03;4880793;29;45453;-51
2022/11/25 01:45:50;;;;;;;;;5.50;3.75;;;;;10.91;78.85;100529.44;4897965;29;45394;-51
2022/11/25 01:48:40;;;;;;;;;8.75;4.25;;;;;10.84;78.77;100519.31;4881010;29;45308;-52
2022/11/25 01:51:16;;;;;;;;;9.40;5.00;;;;;10.91;79.14;100532.19;4876723;29;45626;-53
2022/11/25 01:53:42;;;;;;;;;17.20;15.60;;;;;10.71;79.44;100494.69;4882363;29;46220;-52
2022/11/25 01:56:08;;;;;;;;;4.00;2.75;;;;;10.88;78.97;100527.97;4881080;29;45447;-53
2022/11/25 01:58:34;;;;;;;;;18.50;13.50;;;;;10.87;78.86;100536.44;4898118;29;45496;-54
2022/11/25 02:01:00;;;;;;;;;7.00;4.00;;;;;10.79;79.06;100529.28;4881477;29;45384;-51
2022/11/25 02:03:32;;;;;;;;;5.00;4.00;;;;;10.83;79.20;100541.50;4882897;29;45539;-52
2022/11/25 02:06:15;;;;;;;;;7.80;3.40;;;;;10.82;79.27;100546.16;4884254;29;45453;-53
2022/11/25 02:08:41;;;;;;;;;3.20;2.00;;;;;10.58;79.29;100506.59;4884234;29;45450;-54
2022/11/25 02:11:06;;;;;;;;;2.75;2.25;;;;;10.83;79.38;100547.00;4884648;29;45512;-53
2022/11/25 02:13:32;;;;;;;;;5.00;4.00;;;;;10.62;79.28;100517.97;4900852;29;46134;-53
2022/11/25 02:15:57;;;;;;;;;4.00;4.00;;;;;10.60;79.42;100515.44;4884058;29;45926;-54
2022/11/25 02:18:24;;;;;;;;;3.75;2.75;;;;;10.73;79.00;100538.41;4901421;29;45811;-54
2022/11/25 02:20:49;;;;;;;;;4.80;4.00;;;;;10.79;79.42;100554.00;4901316;29;45237;-55
2022/11/25 02:23:38;;;;;;;;;4.25;2.00;;;;;10.78;78.97;100555.06;4900948;29;45981;-52
2022/11/25 02:26:04;;;;;;;;;3.00;2.00;;;;;10.65;78.83;100544.97;4883810;29;45377;-54
2022/11/25 02:28:30;;;;;;;;;2.00;2.00;;;;;10.71;78.97;100555.94;4901213;29;45438;-50
2022/11/25 02:30:56;;;;;;;;;1.00;1.00;;;;;10.74;79.18;100565.63;4884113;29;45528;-55
2022/11/25 02:33:21;;;;;;;;;4.00;4.00;;;;;10.62;78.09;100557.22;4900623;29;46372;-52
2022/11/25 02:36:02;;;;;;;;;9.75;3.00;;;;;10.70;79.05;100576.22;4864278;28;45451;-51
2022/11/25 02:38:33;;;;;;;;;2.20;1.40;;;;;10.69;78.56;100582.72;4883818;29;45517;-54
2022/11/25 02:41:31;;;;;;;;;2.20;2.20;;;;;10.67;78.55;100584.84;4900790;29;45407;-55
2022/11/25 02:43:57;;;;;;;;;2.00;1.60;;;;;10.66;78.82;100594.16;4899553;29;46225;-53
2022/11/25 02:46:23;;;;;;;;;2.75;2.00;;;;;10.63;78.73;100586.38;4883116;29;45443;-53
2022/11/25 02:48:49;;;;;;;;;4.40;3.80;;;;;10.58;78.22;100583.44;4900459;29;45403;-50
2022/11/25 02:51:16;;;;;;;;;1.00;1.00;;;;;10.58;79.08;100583.44;4900732;29;45487;-55
2022/11/25 02:53:42;;;;;;;;;3.60;2.20;;;;;10.61;78.89;100593.13;4900231;29;46478;-53
2022/11/25 02:56:08;;;;;;;;;5.50;3.00;;;;;9.90;79.01;100479.34;4900391;29;45394;-54
2022/11/25 02:58:33;;;;;;;;;4.40;3.60;;;;;10.13;78.44;100523.78;4900157;29;45394;-51
2022/11/25 03:00:59;;;;;;;;;4.50;2.50;;;;;10.60;78.83;100606.00;4900468;29;45585;-50
2022/11/25 03:03:25;;;;;;;;;7.00;3.50;;;;;10.50;78.07;100598.22;4900243;29;45998;-54
2022/11/25 03:05:50;;;;;;;;;2.00;2.00;;;;;10.58;78.77;100606.22;4900035;29;45353;-54
2022/11/25 03:08:16;;;;;;;;;3.25;2.25;;;;;10.55;78.05;100606.66;4900335;29;45388;-54
2022/11/25 03:10:41;;;;;;;;;2.75;2.75;;;;;10.56;78.66;100613.81;4900245;29;45309;-55
2022/11/25 03:13:07;;;;;;;;;2.00;2.00;;;;;10.58;78.81;100616.34;4899612;29;46563;-51
2022/11/25 03:15:33;;;;;;;;;5.25;2.00;;;;;10.53;78.47;100618.91;4900204;29;45458;-52
2022/11/25 03:17:58;;;;;;;;;3.50;2.75;;;;;10.53;78.36;100628.00;4883151;29;45428;-53
2022/11/25 03:20:24;;;;;;;;;2.75;2.00;;;;;10.52;78.35;100626.28;4899918;29;45770;-50
2022/11/25 03:22:49;;;;;;;;;4.50;3.00;;;;;10.36;78.60;100610.25;4899868;29;45803;-55
2022/11/25 03:25:15;;;;;;;;;3.25;2.25;;;;;10.52;78.29;100637.25;4899408;29;45426;-54
2022/11/25 03:27:41;;;;;;;;;2.25;2.00;;;;;10.52;78.29;100639.16;4883173;29;45446;-54
2022/11/25 03:30:11;;;;;;;;;2.75;2.00;;;;;10.39;77.93;100621.63;4882966;29;45578;-56
2022/11/25 03:32:37;;;;;;;;;3.80;3.80;;;;;10.52;78.82;100647.41;4883005;29;45422;-54
2022/11/25 03:35:03;;;;;;;;;7.25;4.50;;;;;10.51;78.10;100656.69;4899504;29;45888;-54
2022/11/25 03:37:29;;;;;;;;;4.00;3.20;;;;;10.49;78.68;100653.31;4882290;29;45453;-54
2022/11/25 03:39:54;;;;;;;;;5.00;3.00;;;;;10.49;78.06;100664.28;4882991;28;45615;-53
2022/11/25 03:42:20;;;;;;;;;4.25;2.00;;;;;10.46;78.71;100667.47;4857336;29;45612;-52
2022/11/25 03:44:46;;;;;;;;;1.50;1.50;;;;;10.45;78.77;100674.84;4863624;29;45573;-54
2022/11/25 03:47:11;;;;;;;;;3.25;3.25;;;;;10.42;78.90;100675.25;4863606;29;45417;-54
2022/11/25 03:49:39;;;;;;;;;2.00;2.00;;;;;10.44;78.13;100685.00;4863756;29;45419;-54
2022/11/25 03:52:04;;;;;;;;;2.40;1.80;;;;;10.42;78.60;100678.84;4863581;29;45423;-51
2022/11/25 03:54:30;;;;;;;;;4.00;3.00;;;;;10.43;78.07;100688.78;4879836;29;45402;-54
2022/11/25 03:56:55;;;;;;;;;7.00;6.25;;;;;10.44;78.09;100693.22;4880793;29;45364;-54
2022/11/25 03:59:21;;;;;;;;;3.75;3.75;;;;;10.42;78.39;100689.81;4880490;29;45645;-53
2022/11/25 04:01:46;;;;;;;;;7.00;3.00;;;;;10.17;78.43;100653.94;4880180;29;45620;-52
2022/11/25 04:04:12;;;;;;;;;7.75;4.25;;;;;10.33;78.12;100682.00;4880460;29;45331;-55
2022/11/25 04:06:40;;;;;;;;;4.50;3.00;;;;;10.38;78.25;100688.53;4880494;29;45394;-54
2022/11/25 04:09:06;;;;;;;;;3.80;3.60;;;;;10.39;78.40;100698.47;4880792;29;45438;-53
2022/11/25 04:14:16;;;;;;;;;4.20;3.20;;;;;10.37;78.86;100699.72;4879959;29;45351;-53
2022/11/25 04:16:42;;;;;;;;;2.75;2.50;;;;;10.24;78.39;100681.38;4880324;29;45396;-54
2022/11/25 04:19:07;;;;;;;;;2.80;2.80;;;;;10.35;79.19;100701.84;4863641;29;45455;-55
2022/11/25 04:21:33;;;;;;;;;2.50;2.50;;;;;10.35;78.71;100704.59;4879673;29;46117;-54
2022/11/25 04:23:58;;;;;;;;;2.50;2.50;;;;;10.19;79.29;100698.44;4863377;29;45932;-52
2022/11/25 04:26:24;;;;;;;;;3.25;2.25;;;;;10.04;78.66;100671.25;4847016;29;45391;-52
2022/11/25 04:28:49;;;;;;;;;2.00;2.00;;;;;10.28;79.21;100723.78;4880408;29;45212;-53
2022/11/25 04:31:15;;;;;;;;;8.00;3.50;;;;;10.27;79.61;100727.56;4879626;29;46148;-53
2022/11/25 04:33:40;;;;;;;;;8.25;6.00;;;;;10.24;79.69;100734.31;4879639;29;45356;-52
2022/11/25 04:36:06;;;;;;;;;4.50;2.75;;;;;10.20;79.66;100718.50;4881144;29;45347;-56
2022/11/25 04:38:32;;;;;;;;;3.00;1.00;;;;;10.13;79.22;100711.13;4898983;29;46005;-55
2022/11/25 04:40:57;;;;;;;;;3.25;3.25;;;;;10.28;79.04;100745.72;4881856;29;46122;-56
2022/11/25 04:43:23;;;;;;;;;10.00;4.75;;;;;10.27;79.76;100741.28;4860683;28;45463;-55
2022/11/25 04:45:48;;;;;;;;;5.00;3.00;;;;;10.28;78.62;100742.97;4879991;29;45368;-56
2022/11/25 04:48:14;;;;;;;;;5.25;3.25;;;;;10.23;78.84;100740.00;4863728;29;45397;-54
2022/11/25 04:50:39;;;;;;;;;7.00;5.00;;;;;10.28;79.07;100757.56;4879564;29;45985;-54
2022/11/25 04:53:05;;;;;;;;;6.00;3.75;;;;;9.97;79.19;100725.25;4863328;29;45439;-55
2022/11/25 04:55:30;;;;;;;;;6.00;3.00;;;;;10.25;78.86;100766.19;4879872;29;45374;-54
2022/11/25 04:57:55;;;;;;;;;2.00;2.00;;;;;10.25;79.08;100766.19;4879971;29;45537;-56
2022/11/25 05:00:21;;;;;;;;;4.00;3.00;;;;;10.20;78.22;100762.38;4879588;29;45983;-54
2022/11/25 05:02:47;;;;;;;;;2.50;2.25;;;;;10.19;79.24;100761.53;4862658;29;45340;-54
2022/11/25 05:05:12;;;;;;;;;4.50;2.50;;;;;10.22;78.60;100769.38;4879818;29;45304;-56
2022/11/25 05:07:38;;;;;;;;;3.75;2.50;;;;;10.22;78.40;100776.72;4880259;29;45435;-56
2022/11/25 05:10:04;;;;;;;;;3.00;3.00;;;;;10.22;79.01;100777.59;4879531;29;45432;-54
2022/11/25 05:12:29;;;;;;;;;3.80;2.60;;;;;10.21;78.83;100781.41;4879741;29;45441;-54
2022/11/25 05:14:55;;;;;;;;;4.00;3.00;;;;;10.19;79.06;100785.41;4879328;29;45415;-51
2022/11/25 05:17:22;;;;;;;;;4.50;3.25;;;;;10.20;79.38;100790.69;4863160;29;45375;-57
2022/11/25 05:19:48;;;;;;;;;4.40;2.00;;;;;10.02;78.72;100772.91;4879460;29;46212;-55
2022/11/25 05:22:18;;;;;;;;;2.50;2.50;;;;;10.13;78.70;100793.41;4879459;29;45335;-54
2022/11/25 05:24:43;;;;;;;;;9.40;4.40;;;;;10.12;79.23;100793.59;4879661;29;45398;-51
2022/11/25 05:27:09;;;;;;;;;3.00;3.00;;;;;10.20;79.18;100806.28;4880052;29;45279;-55
2022/11/25 05:29:34;;;;;;;;;3.75;2.75;;;;;10.17;78.87;100804.78;4862547;29;47877;-55
2022/11/25 05:32:00;;;;;;;;;3.25;2.00;;;;;10.18;78.38;100820.19;4879351;29;45199;-55
2022/11/25 05:34:25;;;;;;;;;5.50;3.00;;;;;10.07;78.50;100798.84;4879668;29;45382;-55
2022/11/25 05:36:51;;;;;;;;;3.00;3.00;;;;;10.13;79.12;100817.22;4882686;29;45925;-55
2022/11/25 05:39:17;;;;;;;;;3.50;2.00;;;;;10.11;79.40;100820.19;4901583;29;45946;-54
2022/11/25 05:41:42;;;;;;;;;5.50;3.75;;;;;10.12;78.71;100829.25;4901703;29;45338;-53
2022/11/25 05:44:08;;;;;;;;;3.50;2.75;;;;;10.09;79.02;100826.94;4868955;28;46247;-55
2022/11/25 05:46:33;;;;;;;;;7.00;4.00;;;;;9.90;78.74;100801.97;4882535;29;45240;-54
2022/11/25 05:48:59;;;;;;;;;4.00;2.75;;;;;10.08;78.69;100838.97;4881888;29;46261;-55
2022/11/25 05:51:24;;;;;;;;;3.75;2.75;;;;;10.05;79.65;100837.47;4882104;29;45370;-54
2022/11/25 05:53:50;;;;;;;;;2.50;2.00;;;;;10.02;79.25;100841.47;4882763;29;45582;-55
2022/11/25 05:56:15;;;;;;;;;4.50;4.50;;;;;9.85;78.63;100816.31;4882103;29;45666;-53
2022/11/25 05:58:41;;;;;;;;;9.00;4.00;;;;;9.90;79.39;100829.41;4865272;29;45581;-54
2022/11/25 06:01:07;;;;;;;;;6.00;4.75;;;;;9.96;78.61;100844.16;4865082;29;45588;-52
2022/11/25 06:03:33;;;;;;;;;6.60;4.80;;;;;9.86;79.32;100826.22;4882176;29;45748;-54
2022/11/25 06:05:58;;;;;;;;;6.75;3.25;;;;;9.45;78.40;100758.59;4882204;29;45323;-55
2022/11/25 06:08:25;;;;;;;;;23.25;22.75;;;;;10.01;78.56;100858.13;4882144;29;45764;-54
2022/11/25 06:10:51;;;;;;;;;24.40;23.20;;;;;10.02;77.96;100859.81;4882072;29;45289;-55
2022/11/25 06:13:17;;;;;;;;;4.25;4.00;;;;;9.99;78.37;100858.31;4882089;29;45395;-53
2022/11/25 06:15:43;;;;;;;;;8.60;4.20;;;;;10.00;78.14;100862.78;4882079;29;45393;-55
2022/11/25 06:18:09;;;;;;;;;8.25;5.75;;;;;9.94;77.83;100862.72;4881858;29;46419;-57
2022/11/25 06:20:34;;;;;;;;;12.00;4.80;;;;;9.25;78.59;100767.56;4881546;29;45359;-56
2022/11/25 06:23:00;;;;;;;;;6.50;5.00;;;;;9.92;78.07;100871.16;4881915;29;45330;-58
2022/11/25 06:25:25;;;;;;;;;6.50;4.75;;;;;9.94;78.84;100876.44;4881822;29;45437;-54
2022/11/25 06:27:51;;;;;;;;;4.00;3.00;;;;;9.94;78.93;100884.66;4882146;29;45453;-55
2022/11/25 06:30:17;;;;;;;;;5.00;4.00;;;;;9.94;77.64;100884.66;4882168;29;45485;-54
2022/11/25 06:32:43;;;;;;;;;9.00;5.75;;;;;9.96;78.27;100896.28;4882444;29;45408;-55
2022/11/25 06:35:08;;;;;;;;;9.75;3.00;;;;;9.93;77.92;100882.97;4882166;29;45479;-54
2022/11/25 06:37:34;;;;;;;;;5.25;3.75;;;;;9.97;77.80;100900.72;4868966;29;45663;-52
2022/11/25 06:39:59;;;;;;;;;5.50;3.00;;;;;9.94;77.70;100903.88;4900763;29;45400;-56
2022/11/25 06:42:25;;;;;;;;;4.25;3.25;;;;;9.72;77.47;100879.31;4900378;29;45385;-54
2022/11/25 06:44:50;;;;;;;;;3.75;3.75;;;;;9.94;77.33;100918.44;4872039;28;45502;-51
2022/11/25 06:47:16;;;;;;;;;5.00;2.00;;;;;9.95;77.62;100917.38;4900150;29;45577;-51
2022/11/25 06:49:41;;;;;;;;;5.00;3.25;;;;;9.94;78.25;100914.81;4899810;29;45379;-53
2022/11/25 06:52:07;;;;;;;;;6.00;5.50;;;;;9.93;77.71;100915.88;4900371;29;45470;-55
2022/11/25 06:54:32;;;;;;;;;5.25;3.50;;;;;9.93;77.44;100922.19;4900406;29;45247;-52
2022/11/25 06:56:58;;;;;;;;;6.00;2.75;;;;;9.70;77.74;100873.16;4900188;29;45474;-55
2022/11/25 06:59:23;;;;;;;;;4.75;3.25;;;;;9.94;77.74;100920.31;4900160;29;45527;-54
2022/11/25 07:01:49;;;;;;;;;7.00;4.50;;;;;9.93;77.51;100913.97;4900340;29;45379;-51
2022/11/25 07:04:14;;;;;;;;;3.25;3.25;;;;;9.92;77.80;100919.69;4900628;29;45610;-53
2022/11/25 07:06:40;;;;;;;;;7.25;3.50;;;;;9.88;77.28;100911.84;4899775;29;46190;-51
2022/11/25 07:09:05;;;;;;;;;11.00;6.50;;;;;9.63;77.83;100871.25;4883183;29;45374;-55
2022/11/25 07:11:32;;;;;;;;;8.00;3.25;;;;;9.67;77.67;100884.53;4899924;29;45382;-52
2022/11/25 07:14:05;;;;;;;;;5.80;3.80;;;;;9.84;78.07;100927.03;4900217;29;45906;-51
2022/11/25 07:16:31;;;;;;;;;8.60;4.00;;;;;9.77;77.40;100912.44;4899757;29;46049;-54
2022/11/25 07:19:03;;;;;;;;;8.50;4.50;;;;;9.86;78.28;100927.66;4882786;29;45526;-55
2022/11/25 07:21:30;;;;;;;;;4.40;4.40;;;;;9.72;77.98;100906.72;4883480;29;45311;-53
2022/11/25 07:23:56;;;;;;;;;5.60;4.60;;;;;9.88;77.97;100938.44;4900134;29;45692;-55
2022/11/25 07:26:23;;;;;;;;;4.00;4.00;;;;;9.58;77.66;100892.94;4882863;29;45556;-51
2022/11/25 07:28:49;;;;;;;;;10.80;6.80;;;;;9.89;77.61;100949.19;4882555;29;45561;-53
2022/11/25 07:31:18;;;;;;;;;5.40;4.00;;;;;9.66;76.85;100911.09;4899839;29;45362;-52
2022/11/25 07:33:44;;;;;;;;;7.80;6.60;;;;;9.89;76.94;100962.88;4867394;29;45625;-55
2022/11/25 07:36:10;;;;;;;;;7.25;6.50;;;;;9.88;77.29;100955.72;4899661;29;45338;-53
2022/11/25 07:38:36;;;;;;;;;4.00;4.00;;;;;9.74;76.75;100934.75;4899571;29;45450;-54
2022/11/25 07:41:13;;;;;;;;;7.00;4.75;;;;;9.30;76.82;100874.63;4899864;29;45424;-54
2022/11/25 07:43:38;;;;;;;;;8.00;6.20;;;;;9.83;76.75;100971.91;4899805;29;45369;-51
2022/11/25 07:46:08;;;;;;;;;6.75;6.00;;;;;9.82;77.12;100975.72;4853949;28;48033;-54
2022/11/25 07:48:34;;;;;;;;;6.80;2.80;;;;;9.83;77.31;100971.09;4882699;29;45329;-53
2022/11/25 07:50:59;;;;;;;;;6.00;3.50;;;;;9.77;77.11;100965.34;4899653;29;45213;-54
2022/11/25 07:53:24;;;;;;;;;4.00;3.00;;;;;9.16;77.63;100870.94;4900347;29;45206;-56
2022/11/25 07:55:50;;;;;;;;;8.25;4.00;;;;;9.79;76.11;100970.63;4899350;29;45772;-56
2022/11/25 07:58:16;;;;;;;;;8.50;3.50;;;;;9.86;76.62;100990.72;4899521;29;45620;-54
2022/11/25 08:00:41;;;;;;;;;3.75;3.00;;;;;9.79;76.88;100980.75;4898979;29;45470;-52
2022/11/25 08:03:06;;;;;;;;;5.00;3.00;;;;;9.88;76.18;100999.56;4882358;29;45499;-54
2022/11/25 08:05:32;;;;;;;;;6.75;2.00;;;;;9.88;76.67;101006.97;4866979;29;45783;-55
2022/11/25 08:07:58;;;;;;;;;6.50;6.00;;;;;9.88;77.07;101013.28;4899034;29;45397;-53
2022/11/25 08:10:23;;;;;;;;;5.00;5.00;;;;;9.26;76.40;100927.25;4899737;29;45561;-51
2022/11/25 08:12:48;;;;;;;;;10.00;8.00;;;;;9.86;76.83;101036.47;4882467;29;45453;-54
2022/11/25 08:15:14;;;;;;;;;7.00;6.50;;;;;9.90;76.51;101046.00;4881869;29;46348;-54
2022/11/25 08:17:40;;;;;;;;;6.75;5.75;;;;;9.94;76.72;101060.16;4899257;29;46018;-51
2022/11/25 08:20:06;;;;;;;;;6.25;4.50;;;;;9.86;77.11;101041.94;4899069;29;45492;-53
2022/11/25 08:22:31;;;;;;;;;6.60;4.80;;;;;9.92;77.24;101056.78;4899083;29;45570;-56
2022/11/25 08:24:57;;;;;;;;;8.50;6.25;;;;;9.72;77.19;101024.56;4899298;29;45772;-55
2022/11/25 08:27:22;;;;;;;;;9.75;7.00;;;;;9.97;76.53;101066.09;4882301;29;45404;-51
2022/11/25 08:29:48;;;;;;;;;4.00;1.75;;;;;9.90;76.73;101063.31;4899562;29;45445;-53
2022/11/25 08:32:13;;;;;;;;;8.50;6.25;;;;;9.89;76.83;101063.50;4898960;29;45280;-53
2022/11/25 08:34:39;;;;;;;;;8.00;7.00;;;;;9.95;77.24;101070.06;4882167;29;46247;-53
2022/11/25 08:37:04;;;;;;;;;6.25;6.25;;;;;9.66;76.64;101023.47;4899200;29;45332;-55
2022/11/25 08:39:30;;;;;;;;;8.50;7.00;;;;;9.98;76.98;101075.16;4881808;29;45209;-53
2022/11/25 08:41:55;;;;;;;;;12.75;8.25;;;;;9.87;76.98;101062.88;4899311;29;45566;-52
2022/11/25 08:44:21;;;;;;;;;8.25;7.25;;;;;10.00;76.42;101078.53;4858252;29;48024;-54
2022/11/25 08:46:46;;;;;;;;;9.25;8.25;;;;;9.93;77.17;101072.16;4850507;28;45599;-52
2022/11/25 08:49:12;;;;;;;;;7.50;7.50;;;;;10.03;77.21;101086.34;4861830;29;45575;-55
2022/11/25 08:51:38;;;;;;;;;7.75;7.00;;;;;10.01;76.67;101083.84;4861691;29;45422;-55
2022/11/25 08:54:05;;;;;;;;;4.75;4.50;;;;;10.09;75.75;101098.44;4878379;29;45551;-52
2022/11/25 08:56:30;;;;;;;;;9.60;9.60;;;;;9.90;76.40;101079.75;4860930;29;45541;-55
2022/11/25 08:58:56;;;;;;;;;10.25;6.00;;;;;10.08;76.33;101108.56;4877898;29;45797;-51
2022/11/25 09:01:22;;;;;;;;;8.50;7.50;;;;;10.02;75.63;101093.75;4878325;29;45251;-53
2022/11/25 09:03:49;;;;;;;;;7.00;4.60;;;;;10.15;75.93;101120.41;4861273;29;45446;-50
2022/11/25 09:06:15;;;;;;;;;7.60;6.40;;;;;10.20;76.23;101124.47;4878284;29;45426;-52
2022/11/25 09:08:41;;;;;;;;;8.25;6.25;;;;;10.24;75.62;101123.88;4878347;29;45364;-52
2022/11/25 09:11:06;;;;;;;;;8.25;6.75;;;;;10.23;75.72;101118.56;4877903;29;45433;-50
2022/11/25 09:13:32;;;;;;;;;6.75;6.00;;;;;10.29;74.98;101128.75;4877587;29;46727;-52
2022/11/25 09:15:58;;;;;;;;;8.75;5.50;;;;;10.21;75.27;101142.63;4879861;29;45504;-50
2022/11/25 09:18:25;;;;;;;;;6.50;6.00;;;;;10.04;75.63;101112.75;4874723;29;45480;-54
2022/11/25 09:20:51;;;;;;;;;3.00;3.00;;;;;10.31;75.04;101145.88;4870973;29;45398;-50
2022/11/25 09:23:18;;;;;;;;;7.20;7.00;;;;;10.41;75.40;101154.56;4864104;29;46746;-56
2022/11/25 09:25:56;;;;;;;;;7.00;6.20;;;;;10.41;74.71;101146.34;4860832;29;46228;-56
2022/11/25 09:28:22;;;;;;;;;5.60;4.40;;;;;10.39;74.40;101162.19;4878407;29;45426;-54
2022/11/25 09:30:47;;;;;;;;;5.80;3.60;;;;;10.44;74.95;101165.19;4878478;29;45788;-55
2022/11/25 09:33:13;;;;;;;;;3.00;3.00;;;;;10.49;74.90;101175.56;4878108;29;45954;-53
2022/11/25 09:35:39;;;;;;;;;7.75;6.25;;;;;10.50;73.84;101181.88;4877134;29;45443;-53
2022/11/25 09:38:04;;;;;;;;;10.75;4.50;;;;;10.52;73.89;101177.06;4879871;29;45434;-54
2022/11/25 09:40:56;;;;;;;;;7.00;4.00;;;;;10.50;73.82;101184.63;4891654;29;45508;-53
2022/11/25 09:46:50;;;;;;;;;5.60;4.20;;;;;10.41;73.82;101183.94;4847155;28;45537;-53
2022/11/25 09:49:54;;;;;;;;;5.20;3.00;;;;;10.31;73.69;101159.59;4867422;29;45626;-52
2022/11/25 09:52:54;;;;;;;;;5.80;4.40;;;;;10.49;73.81;101205.75;4878371;29;45369;-55
2022/11/25 09:55:26;;;;;;;;;4.20;4.20;;;;;10.47;73.97;101205.13;4861898;29;46146;-55
2022/11/25 09:58:20;;;;;;;;;4.80;3.60;;;;;10.43;74.04;101204.69;4831297;29;45566;-54
2022/11/25 10:00:46;;;;;;;;;5.80;3.40;;;;;10.41;73.75;101214.94;4846978;29;45435;-54
2022/11/25 10:03:15;;;;;;;;;7.60;3.00;;;;;10.41;73.28;101223.19;4861619;29;45669;-54
2022/11/25 10:06:03;;;;;;;;;5.80;3.80;;;;;10.28;74.09;101193.75;4877771;29;46076;-54
2022/11/25 10:08:38;;;;;;;;;7.00;5.00;;;;;10.27;73.02;101197.56;4860311;29;45503;-50
2022/11/25 10:11:23;;;;;;;;;3.00;3.00;;;;;10.51;73.72;101227.53;4845920;29;45921;-54
2022/11/25 10:14:26;;;;;;;;;4.00;4.00;;;;;10.55;73.78;101226.91;4858978;29;46019;-52
2022/11/25 10:17:19;;;;;;;;;5.80;5.80;;;;;10.56;72.95;101239.59;4813597;29;45790;-51
2022/11/25 10:20:04;;;;;;;;;3.80;3.80;;;;;10.55;72.87;101248.88;4819131;29;45388;-52
2022/11/25 10:22:31;;;;;;;;;7.40;3.40;;;;;10.57;72.99;101251.44;4854872;29;45471;-54
2022/11/25 10:25:05;;;;;;;;;7.80;6.40;;;;;10.33;72.58;101212.34;4868856;29;45638;-52
2022/11/25 10:27:48;;;;;;;;;6.80;2.20;;;;;10.30;72.87;101241.03;4880037;29;47591;-50
2022/11/25 10:30:19;;;;;;;;;6.40;3.80;;;;;10.49;72.84;101257.03;4864611;29;45381;-51
2022/11/25 10:33:05;;;;;;;;;8.20;5.60;;;;;10.51;73.02;101265.94;4832650;29;45439;-51
2022/11/25 10:35:37;;;;;;;;;5.80;3.80;;;;;10.60;73.34;101270.22;4879265;29;45577;-55
2022/11/25 10:38:04;;;;;;;;;5.40;3.00;;;;;10.67;72.46;101268.38;4865975;29;46151;-55
2022/11/25 10:40:31;;;;;;;;;7.00;5.80;;;;;10.61;72.83;101269.19;4895165;29;45454;-54
2022/11/25 10:42:56;;;;;;;;;4.75;4.75;;;;;10.16;72.90;101185.19;4863221;29;45441;-54
2022/11/25 10:45:29;;;;;;;;;8.50;4.50;;;;;10.66;72.03;101263.94;4840350;28;45299;-54
2022/11/25 10:48:20;;;;;;;;;5.20;5.20;;;;;10.73;72.58;101266.72;4849848;29;46683;-52
2022/11/25 10:51:10;;;;;;;;;3.80;1.40;;;;;10.57;71.94;101243.19;4864140;29;45391;-54
2022/11/25 10:53:35;;;;;;;;;14.60;7.00;;;;;10.82;72.87;101273.78;4869969;29;45422;-53
2022/11/25 10:56:08;;;;;;;;;8.25;5.75;;;;;10.87;72.19;101272.34;4876282;29;45750;-55
2022/11/25 10:58:35;;;;;;;;;6.80;4.80;;;;;10.90;71.70;101283.78;4880259;29;45932;-54
2022/11/25 11:01:27;;;;;;;;;7.60;3.00;;;;;10.96;72.38;101291.19;4862288;29;45468;-55
2022/11/25 11:04:01;;;;;;;;;7.80;3.00;;;;;10.78;72.21;101244.19;4874654;29;45373;-61
2022/11/25 11:06:47;;;;;;;;;8.20;5.20;;;;;11.06;71.54;101289.97;4832044;29;45493;-53
2022/11/25 11:09:32;;;;;;;;;5.60;4.00;;;;;11.11;71.74;101291.06;4861066;29;48492;-53
2022/11/25 11:11:59;;;;;;;;;9.60;4.80;;;;;11.22;71.66;101283.31;4887852;29;45959;-53
2022/11/25 11:14:28;;;;;;;;;8.60;4.60;;;;;12.16;70.24;101296.56;4846790;29;45563;-58
2022/11/25 11:16:55;;;;;;;;;8.60;5.00;;;;;16.13;60.74;101287.69;4879568;29;45673;-54
2022/11/25 11:19:22;;;;;;;;;9.20;4.60;;;;;19.24;52.34;101286.72;4879472;29;46583;-53
2022/11/25 11:21:48;;;;;;;;;7.40;4.60;;;;;21.22;46.31;101279.16;4847581;29;45494;-57
2022/11/25 11:24:28;;;;;;;;;9.00;5.00;;;;;23.34;42.17;101288.91;4861992;29;45738;-57
2022/11/25 11:27:02;;;;;;;;;10.20;8.20;;;;;23.85;39.87;101283.34;4847775;29;45621;-54
2022/11/25 11:29:27;;;;;;;;;7.40;7.40;;;;;20.84;42.00;101287.59;4862623;29;48440;-56
2022/11/25 11:31:57;;;;;;;;;4.25;3.75;;;;;18.81;47.70;101303.03;4862943;29;45434;-55
2022/11/25 11:34:38;;;;;;;;;5.80;5.80;;;;;17.50;50.64;101303.69;4862236;29;45557;-57
2022/11/25 11:37:18;;;;;;;;;6.20;3.80;;;;;16.23;53.22;101280.75;4848260;29;45677;-58
2022/11/25 11:40:12;;;;;;;;;4.60;4.00;;;;;15.59;55.92;101309.72;4872804;29;45478;-55